PWSweather.com
Personal Weather Stations
Station Observations
KWAWINTH17
Edelweiss Bluff, Winthrop, WA 98862

Edelweiss BluffWinthrop, WA 98862

Lat: 48.558056, Lon: -120.34

Elevation: 2129

Station Type: Davis Vantage Vue (Wireless)

High Low Average
Temperature 40.3°F4.6°C 29.5°F-1.4°C 34.2°F1.2°C
Dew Point 35.6°F2.0°C 28.3°F-2.1°C 32.0°F0.0°C
Winds 5.0 mph 8.0 kmh Calm Calm Calm ECalm E
Wind Gusts 5.0 mph8.0 kmh -- 1.0 mph1.6 kmh
Humidity 98% 80% 92%
Pressure 29.66 in1004.4 mb 29.47 in998.0 mb -
Precipitation 0.13 in3.3 mm - -
Hour Temp Dew Point Humidity Winds Wind Gusts Pressure Precip Precip Rate Daily Precip Total
12:00 AM 34.1°F1.2°C 33.3°F0.7°C 97% Calm Calm -- 29.48 in998.3 mb 0.00 in0.0 mm 0.00 in0.0 mm 0.13 in3.3 mm
12:05 AM 34.0°F1.1°C 33.2°F0.7°C 97% Calm Calm 1.0 mph1.6 kmh 29.48 in998.3 mb 0.00 in0.0 mm 0.00 in0.0 mm 0.00 in0.0 mm
12:10 AM 34.0°F1.1°C 33.4°F0.8°C 98% Calm Calm -- 29.48 in998.3 mb 0.00 in0.0 mm 0.00 in0.0 mm 0.00 in0.0 mm
12:15 AM 34.0°F1.1°C 33.4°F0.8°C 98% Calm Calm -- 29.47 in998.0 mb 0.00 in0.0 mm 0.00 in0.0 mm 0.00 in0.0 mm
12:20 AM 33.8°F1.0°C 33.0°F0.6°C 97% Calm Calm -- 29.48 in998.3 mb 0.00 in0.0 mm 0.00 in0.0 mm 0.00 in0.0 mm
12:25 AM 33.6°F0.9°C 32.8°F0.4°C 97% Calm Calm -- 29.47 in998.0 mb 0.00 in0.0 mm 0.00 in0.0 mm 0.00 in0.0 mm
12:30 AM 33.5°F0.8°C 32.7°F0.4°C 97% Calm Calm -- 29.47 in998.0 mb 0.00 in0.0 mm 0.00 in0.0 mm 0.00 in0.0 mm
12:35 AM 33.4°F0.8°C 32.6°F0.3°C 97% Calm Calm -- 29.47 in998.0 mb 0.00 in0.0 mm 0.00 in0.0 mm 0.00 in0.0 mm
12:40 AM 33.4°F0.8°C 32.6°F0.3°C 97% Calm Calm -- 29.47 in998.0 mb 0.00 in0.0 mm 0.00 in0.0 mm 0.00 in0.0 mm
12:45 AM 33.3°F0.7°C 32.5°F0.3°C 97% Calm Calm -- 29.48 in998.3 mb 0.00 in0.0 mm 0.00 in0.0 mm 0.00 in0.0 mm
12:50 AM 33.4°F0.8°C 32.8°F0.4°C 98% Calm Calm -- 29.48 in998.3 mb 0.00 in0.0 mm 0.00 in0.0 mm 0.00 in0.0 mm
12:55 AM 33.5°F0.8°C 32.9°F0.5°C 98% Calm Calm 1.0 mph1.6 kmh 29.48 in998.3 mb 0.00 in0.0 mm 0.00 in0.0 mm 0.00 in0.0 mm
01:00 AM 33.5°F0.8°C 32.9°F0.5°C 98% Calm Calm -- 29.48 in998.3 mb 0.00 in0.0 mm 0.00 in0.0 mm 0.00 in0.0 mm
01:10 AM 33.2°F0.7°C 32.4°F0.2°C 97% Calm Calm -- 29.49 in998.6 mb 0.00 in0.0 mm 0.00 in0.0 mm 0.00 in0.0 mm
01:15 AM 33.1°F0.6°C 32.3°F0.2°C 97% Calm Calm 1.0 mph1.6 kmh 29.49 in998.6 mb 0.00 in0.0 mm 0.00 in0.0 mm 0.00 in0.0 mm
01:20 AM 33.1°F0.6°C 32.3°F0.2°C 97% Calm Calm -- 29.49 in998.6 mb 0.00 in0.0 mm 0.00 in0.0 mm 0.00 in0.0 mm
01:25 AM 33.1°F0.6°C 32.5°F0.3°C 98% Calm Calm -- 29.49 in998.6 mb 0.00 in0.0 mm 0.00 in0.0 mm 0.00 in0.0 mm
12:30 PM 39.2°F4.0°C 35.3°F1.8°C 86% Calm Calm 2.0 mph3.2 kmh 29.61 in1002.7 mb 0.01 in0.3 mm 0.12 in3.0 mm 0.01 in0.3 mm
12:35 PM 39.1°F3.9°C 35.2°F1.8°C 86% Calm Calm 2.0 mph3.2 kmh 29.61 in1002.7 mb 0.01 in0.3 mm 0.00 in0.0 mm 0.01 in0.3 mm
12:40 PM 39.0°F3.9°C 34.5°F1.4°C 84% Calm Calm 3.0 mph4.8 kmh 29.61 in1002.7 mb 0.01 in0.3 mm 0.00 in0.0 mm 0.01 in0.3 mm
12:45 PM 39.5°F4.2°C 35.3°F1.8°C 85% 1.0 mph S1.6 kmh S 3.0 mph4.8 kmh 29.61 in1002.7 mb 0.01 in0.3 mm 0.00 in0.0 mm 0.01 in0.3 mm
12:50 PM 40.1°F4.5°C 35.6°F2.0°C 84% 2.0 mph SSW3.2 kmh SSW 4.0 mph6.4 kmh 29.61 in1002.7 mb 0.01 in0.3 mm 0.00 in0.0 mm 0.01 in0.3 mm
12:55 PM 40.1°F4.5°C 34.7°F1.5°C 81% 1.0 mph SSW1.6 kmh SSW 5.0 mph8.0 kmh 29.61 in1002.7 mb 0.01 in0.3 mm 0.00 in0.0 mm 0.01 in0.3 mm
01:00 PM 39.8°F4.3°C 34.7°F1.5°C 82% 5.0 mph S8.0 kmh S 5.0 mph8.0 kmh 29.61 in1002.7 mb 0.01 in0.3 mm 0.00 in0.0 mm 0.01 in0.3 mm
01:05 PM 40.0°F4.4°C 34.9°F1.6°C 82% Calm Calm 4.0 mph6.4 kmh 29.61 in1002.7 mb 0.01 in0.3 mm 0.00 in0.0 mm 0.01 in0.3 mm
01:10 PM 40.3°F4.6°C 34.6°F1.4°C 80% Calm Calm 2.0 mph3.2 kmh 29.61 in1002.7 mb 0.01 in0.3 mm 0.00 in0.0 mm 0.01 in0.3 mm
01:15 PM 40.0°F4.4°C 34.3°F1.3°C 80% Calm Calm 4.0 mph6.4 kmh 29.61 in1002.7 mb 0.01 in0.3 mm 0.00 in0.0 mm 0.01 in0.3 mm
01:20 PM 39.7°F4.3°C 34.3°F1.3°C 81% 3.0 mph S4.8 kmh S 5.0 mph8.0 kmh 29.61 in1002.7 mb 0.01 in0.3 mm 0.00 in0.0 mm 0.01 in0.3 mm
01:25 PM 39.6°F4.2°C 34.5°F1.4°C 82% Calm Calm 4.0 mph6.4 kmh 29.61 in1002.7 mb 0.01 in0.3 mm 0.00 in0.0 mm 0.01 in0.3 mm
01:30 PM 39.9°F4.4°C 34.8°F1.6°C 82% 1.0 mph SSW1.6 kmh SSW 4.0 mph6.4 kmh 29.61 in1002.7 mb 0.00 in0.0 mm 0.00 in0.0 mm 0.01 in0.3 mm
01:35 PM 39.9°F4.4°C 34.8°F1.6°C 82% Calm Calm 4.0 mph6.4 kmh 29.61 in1002.7 mb 0.00 in0.0 mm 0.00 in0.0 mm 0.01 in0.3 mm
01:40 PM 40.2°F4.6°C 35.1°F1.7°C 82% Calm Calm 3.0 mph4.8 kmh 29.61 in1002.7 mb 0.00 in0.0 mm 0.00 in0.0 mm 0.01 in0.3 mm
01:45 PM 40.1°F4.5°C 34.7°F1.5°C 81% 1.0 mph SSW1.6 kmh SSW 4.0 mph6.4 kmh 29.61 in1002.7 mb 0.00 in0.0 mm 0.00 in0.0 mm 0.01 in0.3 mm
01:50 PM 40.0°F4.4°C 34.6°F1.4°C 81% 2.0 mph S3.2 kmh S 3.0 mph4.8 kmh 29.61 in1002.7 mb 0.00 in0.0 mm 0.00 in0.0 mm 0.01 in0.3 mm
01:55 PM 39.5°F4.2°C 34.1°F1.2°C 81% Calm Calm 4.0 mph6.4 kmh 29.61 in1002.7 mb 0.00 in0.0 mm 0.00 in0.0 mm 0.01 in0.3 mm
02:00 PM 39.4°F4.1°C 34.3°F1.3°C 82% 1.0 mph S1.6 kmh S 2.0 mph3.2 kmh 29.61 in1002.7 mb 0.00 in0.0 mm 0.00 in0.0 mm 0.01 in0.3 mm
02:05 PM 39.3°F4.1°C 34.2°F1.2°C 82% Calm Calm 2.0 mph3.2 kmh 29.61 in1002.7 mb 0.00 in0.0 mm 0.00 in0.0 mm 0.01 in0.3 mm
02:10 PM 39.3°F4.1°C 34.2°F1.2°C 82% Calm Calm 3.0 mph4.8 kmh 29.61 in1002.7 mb 0.00 in0.0 mm 0.00 in0.0 mm 0.01 in0.3 mm
02:15 PM 39.3°F4.1°C 34.2°F1.2°C 82% 1.0 mph WSW1.6 kmh WSW 1.0 mph1.6 kmh 29.61 in1002.7 mb 0.00 in0.0 mm 0.00 in0.0 mm 0.01 in0.3 mm
02:20 PM 39.2°F4.0°C 34.4°F1.3°C 83% Calm Calm 1.0 mph1.6 kmh 29.61 in1002.7 mb 0.00 in0.0 mm 0.00 in0.0 mm 0.01 in0.3 mm
02:25 PM 39.1°F3.9°C 34.0°F1.1°C 82% Calm Calm -- 29.61 in1002.7 mb 0.00 in0.0 mm 0.00 in0.0 mm 0.01 in0.3 mm
02:30 PM 38.9°F3.8°C 33.8°F1.0°C 82% Calm Calm -- 29.61 in1002.7 mb 0.00 in0.0 mm 0.00 in0.0 mm 0.01 in0.3 mm
02:35 PM 38.8°F3.8°C 33.7°F0.9°C 82% Calm Calm 1.0 mph1.6 kmh 29.61 in1002.7 mb 0.00 in0.0 mm 0.00 in0.0 mm 0.01 in0.3 mm
02:40 PM 38.8°F3.8°C 33.7°F0.9°C 82% Calm Calm -- 29.61 in1002.7 mb 0.00 in0.0 mm 0.00 in0.0 mm 0.01 in0.3 mm
02:45 PM 38.7°F3.7°C 33.6°F0.9°C 82% Calm Calm -- 29.61 in1002.7 mb 0.00 in0.0 mm 0.00 in0.0 mm 0.01 in0.3 mm
02:50 PM 38.5°F3.6°C 33.7°F0.9°C 83% Calm Calm -- 29.61 in1002.7 mb 0.00 in0.0 mm 0.00 in0.0 mm 0.01 in0.3 mm
02:55 PM 38.5°F3.6°C 34.0°F1.1°C 84% Calm Calm -- 29.61 in1002.7 mb 0.00 in0.0 mm 0.00 in0.0 mm 0.01 in0.3 mm
03:00 PM 38.5°F3.6°C 34.0°F1.1°C 84% Calm Calm -- 29.61 in1002.7 mb 0.00 in0.0 mm 0.00 in0.0 mm 0.01 in0.3 mm
03:05 PM 38.5°F3.6°C 34.9°F1.6°C 87% Calm Calm -- 29.61 in1002.7 mb 0.00 in0.0 mm 0.00 in0.0 mm 0.01 in0.3 mm
03:10 PM 38.5°F3.6°C 34.6°F1.4°C 86% Calm Calm -- 29.61 in1002.7 mb 0.00 in0.0 mm 0.00 in0.0 mm 0.01 in0.3 mm
03:20 PM 38.3°F3.5°C 35.0°F1.7°C 88% Calm Calm -- 29.61 in1002.7 mb 0.00 in0.0 mm 0.00 in0.0 mm 0.01 in0.3 mm
03:25 PM 38.0°F3.3°C 34.7°F1.5°C 88% Calm Calm -- 29.61 in1002.7 mb 0.00 in0.0 mm 0.00 in0.0 mm 0.01 in0.3 mm
03:30 PM 37.8°F3.2°C 34.8°F1.6°C 89% Calm Calm -- 29.61 in1002.7 mb 0.00 in0.0 mm 0.00 in0.0 mm 0.01 in0.3 mm
03:35 PM 37.5°F3.1°C 34.5°F1.4°C 89% Calm Calm -- 29.62 in1003.0 mb 0.00 in0.0 mm 0.00 in0.0 mm 0.01 in0.3 mm
03:40 PM 37.2°F2.9°C 34.2°F1.2°C 89% Calm Calm -- 29.62 in1003.0 mb 0.00 in0.0 mm 0.00 in0.0 mm 0.01 in0.3 mm
03:45 PM 36.9°F2.7°C 34.2°F1.2°C 90% Calm Calm -- 29.62 in1003.0 mb 0.00 in0.0 mm 0.00 in0.0 mm 0.01 in0.3 mm
03:50 PM 36.5°F2.5°C 33.8°F1.0°C 90% Calm Calm -- 29.62 in1003.0 mb 0.00 in0.0 mm 0.00 in0.0 mm 0.01 in0.3 mm
03:55 PM 36.3°F2.4°C 33.6°F0.9°C 90% Calm Calm -- 29.62 in1003.0 mb 0.00 in0.0 mm 0.00 in0.0 mm 0.01 in0.3 mm
04:00 PM 36.0°F2.2°C 33.6°F0.9°C 91% 1.0 mph E1.6 kmh E 1.0 mph1.6 kmh 29.62 in1003.0 mb 0.00 in0.0 mm 0.00 in0.0 mm 0.01 in0.3 mm
04:05 PM 35.7°F2.1°C 33.3°F0.7°C 91% Calm Calm 1.0 mph1.6 kmh 29.62 in1003.0 mb 0.00 in0.0 mm 0.00 in0.0 mm 0.01 in0.3 mm
04:10 PM 35.4°F1.9°C 33.0°F0.6°C 91% Calm Calm -- 29.62 in1003.0 mb 0.00 in0.0 mm 0.00 in0.0 mm 0.01 in0.3 mm
04:15 PM 35.2°F1.8°C 33.1°F0.6°C 92% Calm Calm -- 29.62 in1003.0 mb 0.00 in0.0 mm 0.00 in0.0 mm 0.01 in0.3 mm
04:20 PM 34.9°F1.6°C 32.8°F0.4°C 92% Calm Calm 1.0 mph1.6 kmh 29.62 in1003.0 mb 0.00 in0.0 mm 0.00 in0.0 mm 0.01 in0.3 mm
04:25 PM 34.6°F1.4°C 32.5°F0.3°C 92% Calm Calm 1.0 mph1.6 kmh 29.62 in1003.0 mb 0.00 in0.0 mm 0.00 in0.0 mm 0.01 in0.3 mm
04:30 PM 34.4°F1.3°C 32.3°F0.2°C 92% Calm Calm -- 29.62 in1003.0 mb 0.00 in0.0 mm 0.00 in0.0 mm 0.01 in0.3 mm
04:35 PM 34.2°F1.2°C 32.3°F0.2°C 93% Calm Calm -- 29.62 in1003.0 mb 0.00 in0.0 mm 0.00 in0.0 mm 0.01 in0.3 mm
04:40 PM 34.1°F1.2°C 32.2°F0.1°C 93% Calm Calm 1.0 mph1.6 kmh 29.62 in1003.0 mb 0.00 in0.0 mm 0.00 in0.0 mm 0.01 in0.3 mm
04:45 PM 33.9°F1.1°C 32.0°F0.0°C 93% Calm Calm 1.0 mph1.6 kmh 29.62 in1003.0 mb 0.00 in0.0 mm 0.00 in0.0 mm 0.01 in0.3 mm
04:50 PM 33.8°F1.0°C 32.2°F0.1°C 94% Calm Calm 1.0 mph1.6 kmh 29.62 in1003.0 mb 0.00 in0.0 mm 0.00 in0.0 mm 0.01 in0.3 mm
04:55 PM 33.7°F0.9°C 31.8°F-0.1°C 93% Calm Calm -- 29.62 in1003.0 mb 0.00 in0.0 mm 0.00 in0.0 mm 0.01 in0.3 mm
05:00 PM 33.5°F0.8°C 31.6°F-0.2°C 93% Calm Calm -- 29.62 in1003.0 mb 0.00 in0.0 mm 0.00 in0.0 mm 0.01 in0.3 mm
05:05 PM 33.3°F0.7°C 31.7°F-0.2°C 94% Calm Calm -- 29.62 in1003.0 mb 0.00 in0.0 mm 0.00 in0.0 mm 0.01 in0.3 mm
05:10 PM 33.1°F0.6°C 31.5°F-0.3°C 94% Calm Calm -- 29.62 in1003.0 mb 0.00 in0.0 mm 0.00 in0.0 mm 0.01 in0.3 mm
05:15 PM 33.1°F0.6°C 31.5°F-0.3°C 94% Calm Calm 1.0 mph1.6 kmh 29.62 in1003.0 mb 0.00 in0.0 mm 0.00 in0.0 mm 0.01 in0.3 mm
05:20 PM 33.1°F0.6°C 31.5°F-0.3°C 94% Calm Calm 1.0 mph1.6 kmh 29.62 in1003.0 mb 0.00 in0.0 mm 0.00 in0.0 mm 0.01 in0.3 mm
05:25 PM 33.1°F0.6°C 31.5°F-0.3°C 94% Calm Calm -- 29.62 in1003.0 mb 0.00 in0.0 mm 0.00 in0.0 mm 0.01 in0.3 mm
05:30 PM 33.1°F0.6°C 31.5°F-0.3°C 94% Calm Calm 1.0 mph1.6 kmh 29.62 in1003.0 mb 0.00 in0.0 mm 0.00 in0.0 mm 0.01 in0.3 mm
05:35 PM 33.3°F0.7°C 31.7°F-0.2°C 94% Calm Calm 1.0 mph1.6 kmh 29.62 in1003.0 mb 0.00 in0.0 mm 0.00 in0.0 mm 0.01 in0.3 mm
05:40 PM 33.4°F0.8°C 31.8°F-0.1°C 94% Calm Calm 1.0 mph1.6 kmh 29.62 in1003.0 mb 0.00 in0.0 mm 0.00 in0.0 mm 0.01 in0.3 mm
05:45 PM 33.3°F0.7°C 31.7°F-0.2°C 94% Calm Calm 1.0 mph1.6 kmh 29.62 in1003.0 mb 0.00 in0.0 mm 0.00 in0.0 mm 0.01 in0.3 mm
05:50 PM 33.2°F0.7°C 31.6°F-0.2°C 94% Calm Calm -- 29.62 in1003.0 mb 0.00 in0.0 mm 0.00 in0.0 mm 0.01 in0.3 mm
05:55 PM 33.0°F0.6°C 31.4°F-0.3°C 94% Calm Calm -- 29.62 in1003.0 mb 0.00 in0.0 mm 0.00 in0.0 mm 0.01 in0.3 mm
06:00 PM 33.1°F0.6°C 31.5°F-0.3°C 94% Calm Calm 1.0 mph1.6 kmh 29.62 in1003.0 mb 0.00 in0.0 mm 0.00 in0.0 mm 0.01 in0.3 mm
06:05 PM 33.2°F0.7°C 31.6°F-0.2°C 94% Calm Calm -- 29.62 in1003.0 mb 0.00 in0.0 mm 0.00 in0.0 mm 0.01 in0.3 mm
06:10 PM 32.8°F0.4°C 31.2°F-0.4°C 94% Calm Calm -- 29.62 in1003.0 mb 0.00 in0.0 mm 0.00 in0.0 mm 0.01 in0.3 mm
06:15 PM 32.6°F0.3°C 31.0°F-0.6°C 94% Calm Calm -- 29.63 in1003.4 mb 0.00 in0.0 mm 0.00 in0.0 mm 0.01 in0.3 mm
06:20 PM 32.7°F0.4°C 31.4°F-0.3°C 95% Calm Calm -- 29.63 in1003.4 mb 0.00 in0.0 mm 0.00 in0.0 mm 0.01 in0.3 mm
06:25 PM 32.9°F0.5°C 31.6°F-0.2°C 95% Calm Calm 1.0 mph1.6 kmh 29.63 in1003.4 mb 0.00 in0.0 mm 0.00 in0.0 mm 0.01 in0.3 mm
06:30 PM 33.3°F0.7°C 32.2°F0.1°C 96% Calm Calm 1.0 mph1.6 kmh 29.62 in1003.0 mb 0.00 in0.0 mm 0.00 in0.0 mm 0.01 in0.3 mm
06:35 PM 33.5°F0.8°C 32.2°F0.1°C 95% Calm Calm 1.0 mph1.6 kmh 29.62 in1003.0 mb 0.00 in0.0 mm 0.00 in0.0 mm 0.01 in0.3 mm
06:40 PM 33.4°F0.8°C 31.8°F-0.1°C 94% Calm Calm -- 29.63 in1003.4 mb 0.00 in0.0 mm 0.00 in0.0 mm 0.01 in0.3 mm
06:45 PM 33.3°F0.7°C 31.7°F-0.2°C 94% Calm Calm -- 29.63 in1003.4 mb 0.00 in0.0 mm 0.00 in0.0 mm 0.01 in0.3 mm
06:50 PM 33.3°F0.7°C 31.7°F-0.2°C 94% 1.0 mph NE1.6 kmh NE 1.0 mph1.6 kmh 29.63 in1003.4 mb 0.00 in0.0 mm 0.00 in0.0 mm 0.01 in0.3 mm
06:55 PM 33.3°F0.7°C 31.7°F-0.2°C 94% Calm Calm 1.0 mph1.6 kmh 29.63 in1003.4 mb 0.00 in0.0 mm 0.00 in0.0 mm 0.01 in0.3 mm
07:00 PM 33.3°F0.7°C 31.7°F-0.2°C 94% Calm Calm -- 29.63 in1003.4 mb 0.00 in0.0 mm 0.00 in0.0 mm 0.01 in0.3 mm
07:05 PM 33.2°F0.7°C 31.6°F-0.2°C 94% Calm Calm -- 29.62 in1003.0 mb 0.00 in0.0 mm 0.00 in0.0 mm 0.01 in0.3 mm
07:10 PM 32.8°F0.4°C 31.2°F-0.4°C 94% Calm Calm -- 29.63 in1003.4 mb 0.00 in0.0 mm 0.00 in0.0 mm 0.01 in0.3 mm
07:15 PM 32.7°F0.4°C 31.4°F-0.3°C 95% Calm Calm -- 29.63 in1003.4 mb 0.00 in0.0 mm 0.00 in0.0 mm 0.01 in0.3 mm
07:20 PM 32.6°F0.3°C 31.3°F-0.4°C 95% Calm Calm 1.0 mph1.6 kmh 29.63 in1003.4 mb 0.00 in0.0 mm 0.00 in0.0 mm 0.01 in0.3 mm
07:25 PM 32.7°F0.4°C 31.4°F-0.3°C 95% Calm Calm 1.0 mph1.6 kmh 29.63 in1003.4 mb 0.00 in0.0 mm 0.00 in0.0 mm 0.01 in0.3 mm
07:30 PM 32.8°F0.4°C 31.5°F-0.3°C 95% Calm Calm -- 29.63 in1003.4 mb 0.00 in0.0 mm 0.00 in0.0 mm 0.01 in0.3 mm
07:35 PM 32.9°F0.5°C 31.6°F-0.2°C 95% Calm Calm 1.0 mph1.6 kmh 29.63 in1003.4 mb 0.00 in0.0 mm 0.00 in0.0 mm 0.01 in0.3 mm
07:40 PM 32.9°F0.5°C 31.6°F-0.2°C 95% Calm Calm -- 29.63 in1003.4 mb 0.00 in0.0 mm 0.00 in0.0 mm 0.01 in0.3 mm
07:45 PM 32.8°F0.4°C 31.5°F-0.3°C 95% Calm Calm -- 29.63 in1003.4 mb 0.00 in0.0 mm 0.00 in0.0 mm 0.01 in0.3 mm
07:50 PM 32.6°F0.3°C 31.3°F-0.4°C 95% Calm Calm -- 29.63 in1003.4 mb 0.00 in0.0 mm 0.00 in0.0 mm 0.01 in0.3 mm
07:55 PM 32.5°F0.3°C 31.2°F-0.4°C 95% Calm Calm 1.0 mph1.6 kmh 29.63 in1003.4 mb 0.00 in0.0 mm 0.00 in0.0 mm 0.01 in0.3 mm
08:00 PM 32.4°F0.2°C 31.1°F-0.5°C 95% Calm Calm -- 29.63 in1003.4 mb 0.00 in0.0 mm 0.00 in0.0 mm 0.01 in0.3 mm
08:05 PM 32.5°F0.3°C 31.2°F-0.4°C 95% Calm Calm 1.0 mph1.6 kmh 29.63 in1003.4 mb 0.00 in0.0 mm 0.00 in0.0 mm 0.01 in0.3 mm
08:10 PM 32.5°F0.3°C 31.2°F-0.4°C 95% Calm Calm -- 29.63 in1003.4 mb 0.00 in0.0 mm 0.00 in0.0 mm 0.01 in0.3 mm
08:15 PM 32.3°F0.2°C 30.7°F-0.7°C 94% Calm Calm -- 29.63 in1003.4 mb 0.00 in0.0 mm 0.00 in0.0 mm 0.01 in0.3 mm
08:20 PM 31.8°F-0.1°C 30.2°F-1.0°C 94% Calm Calm -- 29.63 in1003.4 mb 0.00 in0.0 mm 0.00 in0.0 mm 0.01 in0.3 mm
08:25 PM 31.7°F-0.2°C 30.4°F-0.9°C 95% Calm Calm -- 29.63 in1003.4 mb 0.00 in0.0 mm 0.00 in0.0 mm 0.01 in0.3 mm
08:30 PM 31.8°F-0.1°C 30.7°F-0.7°C 96% Calm Calm -- 29.63 in1003.4 mb 0.00 in0.0 mm 0.00 in0.0 mm 0.01 in0.3 mm
08:35 PM 31.8°F-0.1°C 30.7°F-0.7°C 96% Calm Calm -- 29.63 in1003.4 mb 0.00 in0.0 mm 0.00 in0.0 mm 0.01 in0.3 mm
08:40 PM 31.7°F-0.2°C 30.6°F-0.8°C 96% Calm Calm -- 29.63 in1003.4 mb 0.00 in0.0 mm 0.00 in0.0 mm 0.01 in0.3 mm
08:45 PM 31.8°F-0.1°C 30.7°F-0.7°C 96% Calm Calm -- 29.63 in1003.4 mb 0.00 in0.0 mm 0.00 in0.0 mm 0.01 in0.3 mm
08:50 PM 31.8°F-0.1°C 30.7°F-0.7°C 96% Calm Calm -- 29.63 in1003.4 mb 0.00 in0.0 mm 0.00 in0.0 mm 0.01 in0.3 mm
08:55 PM 31.7°F-0.2°C 30.6°F-0.8°C 96% Calm Calm 1.0 mph1.6 kmh 29.63 in1003.4 mb 0.00 in0.0 mm 0.00 in0.0 mm 0.01 in0.3 mm
09:00 PM 31.7°F-0.2°C 30.6°F-0.8°C 96% Calm Calm -- 29.63 in1003.4 mb 0.00 in0.0 mm 0.00 in0.0 mm 0.01 in0.3 mm
09:05 PM 31.6°F-0.2°C 30.5°F-0.8°C 96% Calm Calm 1.0 mph1.6 kmh 29.63 in1003.4 mb 0.00 in0.0 mm 0.00 in0.0 mm 0.01 in0.3 mm
09:10 PM 31.6°F-0.2°C 30.5°F-0.8°C 96% Calm Calm -- 29.63 in1003.4 mb 0.00 in0.0 mm 0.00 in0.0 mm 0.01 in0.3 mm
09:15 PM 31.6°F-0.2°C 30.5°F-0.8°C 96% Calm Calm 1.0 mph1.6 kmh 29.64 in1003.7 mb 0.00 in0.0 mm 0.00 in0.0 mm 0.01 in0.3 mm
09:20 PM 31.7°F-0.2°C 30.6°F-0.8°C 96% 1.0 mph NE1.6 kmh NE 1.0 mph1.6 kmh 29.64 in1003.7 mb 0.00 in0.0 mm 0.00 in0.0 mm 0.01 in0.3 mm
09:25 PM 31.7°F-0.2°C 30.6°F-0.8°C 96% Calm Calm 1.0 mph1.6 kmh 29.64 in1003.7 mb 0.00 in0.0 mm 0.00 in0.0 mm 0.01 in0.3 mm
09:30 PM 31.7°F-0.2°C 30.4°F-0.9°C 95% Calm Calm 1.0 mph1.6 kmh 29.64 in1003.7 mb 0.00 in0.0 mm 0.00 in0.0 mm 0.01 in0.3 mm
09:35 PM 31.7°F-0.2°C 30.4°F-0.9°C 95% Calm Calm 1.0 mph1.6 kmh 29.64 in1003.7 mb 0.00 in0.0 mm 0.00 in0.0 mm 0.01 in0.3 mm
09:40 PM 31.7°F-0.2°C 30.4°F-0.9°C 95% Calm Calm 1.0 mph1.6 kmh 29.64 in1003.7 mb 0.00 in0.0 mm 0.00 in0.0 mm 0.01 in0.3 mm
09:45 PM 31.8°F-0.1°C 30.5°F-0.8°C 95% Calm Calm -- 29.64 in1003.7 mb 0.00 in0.0 mm 0.00 in0.0 mm 0.01 in0.3 mm
09:50 PM 31.7°F-0.2°C 30.4°F-0.9°C 95% Calm Calm -- 29.64 in1003.7 mb 0.00 in0.0 mm 0.00 in0.0 mm 0.01 in0.3 mm
09:55 PM 31.7°F-0.2°C 30.4°F-0.9°C 95% Calm Calm 1.0 mph1.6 kmh 29.64 in1003.7 mb 0.00 in0.0 mm 0.00 in0.0 mm 0.01 in0.3 mm
10:00 PM 31.6°F-0.2°C 30.3°F-0.9°C 95% Calm Calm -- 29.64 in1003.7 mb 0.00 in0.0 mm 0.00 in0.0 mm 0.01 in0.3 mm
10:05 PM 31.6°F-0.2°C 30.3°F-0.9°C 95% Calm Calm -- 29.64 in1003.7 mb 0.00 in0.0 mm 0.00 in0.0 mm 0.01 in0.3 mm
10:10 PM 31.5°F-0.3°C 30.2°F-1.0°C 95% Calm Calm -- 29.64 in1003.7 mb 0.00 in0.0 mm 0.00 in0.0 mm 0.01 in0.3 mm
10:15 PM 31.3°F-0.4°C 30.0°F-1.1°C 95% Calm Calm -- 29.64 in1003.7 mb 0.00 in0.0 mm 0.00 in0.0 mm 0.01 in0.3 mm
10:20 PM 31.3°F-0.4°C 30.0°F-1.1°C 95% Calm Calm 1.0 mph1.6 kmh 29.64 in1003.7 mb 0.00 in0.0 mm 0.00 in0.0 mm 0.01 in0.3 mm
10:25 PM 31.3°F-0.4°C 30.0°F-1.1°C 95% Calm Calm 1.0 mph1.6 kmh 29.64 in1003.7 mb 0.00 in0.0 mm 0.00 in0.0 mm 0.01 in0.3 mm
10:30 PM 31.2°F-0.4°C 29.9°F-1.2°C 95% Calm Calm -- 29.64 in1003.7 mb 0.00 in0.0 mm 0.00 in0.0 mm 0.01 in0.3 mm
10:35 PM 31.0°F-0.6°C 29.7°F-1.3°C 95% Calm Calm 1.0 mph1.6 kmh 29.64 in1003.7 mb 0.00 in0.0 mm 0.00 in0.0 mm 0.01 in0.3 mm
10:40 PM 31.2°F-0.4°C 29.9°F-1.2°C 95% Calm Calm -- 29.64 in1003.7 mb 0.00 in0.0 mm 0.00 in0.0 mm 0.01 in0.3 mm
10:45 PM 31.0°F-0.6°C 29.7°F-1.3°C 95% Calm Calm -- 29.64 in1003.7 mb 0.00 in0.0 mm 0.00 in0.0 mm 0.01 in0.3 mm
10:50 PM 30.6°F-0.8°C 29.0°F-1.7°C 94% Calm Calm -- 29.64 in1003.7 mb 0.00 in0.0 mm 0.00 in0.0 mm 0.01 in0.3 mm
10:55 PM 30.4°F-0.9°C 29.1°F-1.6°C 95% Calm Calm -- 29.64 in1003.7 mb 0.00 in0.0 mm 0.00 in0.0 mm 0.01 in0.3 mm
11:00 PM 30.3°F-0.9°C 29.0°F-1.7°C 95% Calm Calm 1.0 mph1.6 kmh 29.64 in1003.7 mb 0.00 in0.0 mm 0.00 in0.0 mm 0.01 in0.3 mm
11:05 PM 30.3°F-0.9°C 29.2°F-1.6°C 96% Calm Calm -- 29.64 in1003.7 mb 0.00 in0.0 mm 0.00 in0.0 mm 0.01 in0.3 mm
11:10 PM 30.4°F-0.9°C 29.3°F-1.5°C 96% Calm Calm 1.0 mph1.6 kmh 29.65 in1004.1 mb 0.00 in0.0 mm 0.00 in0.0 mm 0.01 in0.3 mm
11:15 PM 30.3°F-0.9°C 29.0°F-1.7°C 95% Calm Calm -- 29.65 in1004.1 mb 0.00 in0.0 mm 0.00 in0.0 mm 0.01 in0.3 mm
11:20 PM 30.1°F-1.1°C 28.8°F-1.8°C 95% Calm Calm -- 29.65 in1004.1 mb 0.00 in0.0 mm 0.00 in0.0 mm 0.01 in0.3 mm
11:25 PM 29.9°F-1.2°C 28.6°F-1.9°C 95% Calm Calm -- 29.65 in1004.1 mb 0.00 in0.0 mm 0.00 in0.0 mm 0.01 in0.3 mm
11:30 PM 29.9°F-1.2°C 28.9°F-1.7°C 96% Calm Calm -- 29.65 in1004.1 mb 0.00 in0.0 mm 0.00 in0.0 mm 0.01 in0.3 mm
11:35 PM 29.6°F-1.3°C 28.3°F-2.1°C 95% Calm Calm -- 29.65 in1004.1 mb 0.00 in0.0 mm 0.00 in0.0 mm 0.01 in0.3 mm
11:40 PM 29.5°F-1.4°C 28.5°F-1.9°C 96% Calm Calm 1.0 mph1.6 kmh 29.66 in1004.4 mb 0.00 in0.0 mm 0.00 in0.0 mm 0.01 in0.3 mm
11:45 PM 29.7°F-1.3°C 28.7°F-1.8°C 96% 1.0 mph NE1.6 kmh NE 1.0 mph1.6 kmh 29.65 in1004.1 mb 0.00 in0.0 mm 0.00 in0.0 mm 0.01 in0.3 mm
11:50 PM 30.0°F-1.1°C 29.0°F-1.7°C 96% Calm Calm 1.0 mph1.6 kmh 29.66 in1004.4 mb 0.00 in0.0 mm 0.00 in0.0 mm 0.01 in0.3 mm
11:55 PM 30.1°F-1.1°C 29.0°F-1.7°C 96% Calm Calm 1.0 mph1.6 kmh 29.66 in1004.4 mb 0.00 in0.0 mm 0.00 in0.0 mm 0.01 in0.3 mm